Home > Products > Valid Products > TAF

000
FTUS44 KLIX 121739
TAFGPT
TAF
KGPT 121739Z 1218/1318 29014G22KT P6SM SCT027 SCT035
     FM122300 29005KT P6SM SCT035
     FM130400 35007KT P6SM FEW250
     FM130800 01011KT P6SM SKC=



000
FTUS44 KLIX 121739
TAFNEW
TAF
KNEW 121739Z 1218/1318 28010KT P6SM FEW027 BKN035
     FM130300 34008KT P6SM SKC
     FM130500 01009KT P6SM SKC
     FM130800 03013KT P6SM SKC=



000
FTUS44 KLIX 121739
TAFBTR
TAF
KBTR 121739Z 1218/1318 26009KT P6SM SCT027 BKN035
     FM122100 29008KT P6SM SCT040
     FM130000 31004KT P6SM SKC
     FM130300 02005KT P6SM SKC=



000
FTUS44 KLIX 121739
TAFMCB
TAF
KMCB 121739Z 1218/1318 29010G15KT P6SM SCT022
     FM121930 31009KT P6SM FEW023
     FM130000 35004KT P6SM SKC=



000
FTUS44 KLIX 121739
TAFMSY
TAF
KMSY 121739Z 1218/1318 28016G22KT P6SM FEW027 BKN035
     FM122300 29006KT P6SM SCT025 BKN035
     FM130400 35005KT P6SM SKC
     FM130800 03009KT P6SM SKC=



000
FTUS44 KLIX 121658 AAB
TAFMSY
TAF AMD
KMSY 121658Z 1217/1312 27014G20KT P6SM SCT028
      TEMPO 1217/1219 BKN028
     FM121900 27013KT P6SM SCT030
     FM130000 30006KT P6SM SCT200
     FM130400 01007KT P6SM SCT250
     FM131000 03011G22KT P6SM SKC=



000
FTUS44 KLIX 121658 AAB
TAFMSY
TAF AMD
KMSY 121658Z 1217/1312 27014G20KT P6SM SCT028
      TEMPO 1217/1219 BKN028
     FM121900 27013KT P6SM SCT030
     FM130000 30006KT P6SM SCT200
     FM130400 01007KT P6SM SCT250
     FM131000 03011G22KT P6SM SKC=



000
FTUS44 KLIX 121508 AAA
TAFMCB
TAF AMD
KMCB 121508Z 1215/1312 28008KT P6SM SCT015 OVC020
     FM121800 29010KT P6SM SCT030
     FM122100 32008KT P6SM SCT200
     FM130000 34004KT P6SM FEW250=



000
FTUS44 KLIX 121503 AAA
TAFGPT
TAF AMD
KGPT 121503Z 1215/1312 26008KT P6SM BKN009 OVC014
     FM121600 27009G15KT P6SM BKN017
     FM121700 29009G15KT P6SM SCT030
     FM130300 34006KT P6SM FEW250
     FM130600 36010G18KT P6SM SKC=



000
FTUS44 KLIX 121503 AAA
TAFGPT
TAF AMD
KGPT 121503Z 1215/1312 26008KT P6SM BKN009 OVC014
     FM121600 27009G15KT P6SM BKN017
     FM121700 29009G15KT P6SM SCT030
     FM130300 34006KT P6SM FEW250
     FM130600 36010G18KT P6SM SKC=



000
FTUS44 KLIX 121501 AAA
TAFNEW
TAF AMD
KNEW 121501Z 1215/1312 26008KT P6SM BKN029
     FM121530 27010KT P6SM SCT030
     FM130000 32008KT P6SM FEW200
     FM130400 01013G20KT P6SM FEW250=



000
FTUS44 KLIX 121459 AAB
TAFBTR
TAF AMD
KBTR 121459Z 1215/1312 24006KT 2SM BR OVC003
     FM121545 26006KT 4SM BR BKN006
     FM121700 27009KT P6SM BKN060
     FM122300 30005KT P6SM SCT200=



000
FTUS44 KLIX 121438 AAA
TAFMSY
TAF AMD
KMSY 121438Z 1215/1312 25008KT P6SM BKN027
     FM121530 26010KT P6SM SCT030
     FM130000 30006KT P6SM SCT200
     FM130400 01007KT P6SM SCT250
     FM131000 03011G22KT P6SM SKC=



000
FTUS44 KLIX 121401 AAA
TAFBTR
TAF AMD
KBTR 121401Z 1214/1312 26004KT 1/4SM FG VV002
     FM121500 27008KT P6SM BKN015
     FM121700 27009KT P6SM BKN060
     FM122300 30005KT P6SM SCT200=



000
FTUS44 KLIX 121138
TAFMSY
TAF
KMSY 121138Z 1212/1312 23007KT P6SM SCT025
     FM121700 26010KT P6SM SCT090
     FM130000 30006KT P6SM SCT200
     FM130400 01007KT P6SM SCT250
     FM131000 03011G22KT P6SM SKC=



000
FTUS44 KLIX 121138
TAFNEW
TAF
KNEW 121138Z 1212/1312 22010KT P6SM SKC
     FM121600 27009KT P6SM SCT070
     FM130000 32008KT P6SM FEW200
     FM130400 01013G20KT P6SM FEW250=



000
FTUS44 KLIX 121138
TAFMCB
TAF
KMCB 121138Z 1212/1312 28005KT P6SM OVC011
     FM121500 28010KT P6SM BKN008
     FM121600 29010KT P6SM BKN040
     FM122100 32008KT P6SM SCT200
     FM130000 34004KT P6SM FEW250=



000
FTUS44 KLIX 121138
TAFBTR
TAF
KBTR 121138Z 1212/1312 27005KT P6SM OVC023
     FM121500 27008KT P6SM BKN015
     FM121700 27009KT P6SM BKN060
     FM122300 30005KT P6SM SCT200=



000
FTUS44 KLIX 121138
TAFGPT
TAF
KGPT 121138Z 1212/1312 00000KT 2SM BR SCT003 OVC018
     FM121300 26006KT 4SM BR BKN025
     FM121600 27009KT P6SM SCT070
     FM130300 34006KT P6SM FEW250
     FM130600 36010G18KT P6SM SKC=



000
FTUS44 KLIX 121138
TAFMCB
TAF
KMCB 121138Z 1212/1312 28005KT P6SM OVC011
     FM121500 28010KT P6SM BKN008
     FM121600 29010KT P6SM BKN040
     FM122100 32008KT P6SM SCT200
     FM130000 34004KT P6SM FEW250=



000
FTUS44 KLIX 121138
TAFMSY
TAF
KMSY 121138Z 1212/1312 23007KT P6SM SCT025
     FM121700 26010KT P6SM SCT090
     FM130000 30006KT P6SM SCT200
     FM130400 01007KT P6SM SCT250
     FM131000 03011G22KT P6SM SKC=



000
FTUS44 KLIX 121138
TAFNEW
TAF
KNEW 121138Z 1212/1312 22010KT P6SM SKC
     FM121600 27009KT P6SM SCT070
     FM130000 32008KT P6SM FEW200
     FM130400 01013G20KT P6SM FEW250=



000
FTUS44 KLIX 121138
TAFGPT
TAF
KGPT 121138Z 1212/1312 00000KT 2SM BR SCT003 OVC018
     FM121300 26006KT 4SM BR BKN025
     FM121600 27009KT P6SM SCT070
     FM130300 34006KT P6SM FEW250
     FM130600 36010G18KT P6SM SKC=



000
FTUS44 KLIX 121138
TAFBTR
TAF
KBTR 121138Z 1212/1312 27005KT P6SM OVC023
     FM121500 27008KT P6SM BKN015
     FM121700 27009KT P6SM BKN060
     FM122300 30005KT P6SM SCT200=



000
FTUS44 KLIX 121138
TAFNEW
TAF
KNEW 121138Z 1212/1312 22010KT P6SM SKC
     FM121600 27009KT P6SM SCT070
     FM130000 32008KT P6SM FEW200
     FM130400 01013G20KT P6SM FEW250=



000
FTUS44 KLIX 120933 AAB
TAFGPT
TAF AMD
KGPT 120933Z 1210/1306 00000KT 3/4SM BR VV012
      TEMPO 1210/1213 1/4SM FG VV002
     FM121430 28010G15KT P6SM BKN040=



000
FTUS44 KLIX 120923 AAA
TAFGPT
TAF AMD
KGPT 120923Z 1209/1306 00000KT 3/4SM BR VV012
     FM121430 28010G15KT P6SM BKN040=



000
FTUS44 KLIX 120534
TAFGPT
TAF
KGPT 120534Z 1206/1306 23006KT P6SM SKC
     FM121600 28010G15KT P6SM BKN040=



000
FTUS44 KLIX 120534
TAFMSY
TAF
KMSY 120534Z 1206/1306 21009KT P6SM FEW015
     FM121600 24010G15KT P6SM SCT040=



000
FTUS44 KLIX 120534
TAFBTR
TAF
KBTR 120534Z 1206/1306 23008KT P6SM SKC
     FM121600 25006KT P6SM FEW015=



000
FTUS44 KLIX 120534
TAFMCB
TAF
KMCB 120534Z 1206/1306 23006KT P6SM SKC
     FM121500 28009KT P6SM FEW015
     FM121700 28010KT P6SM BKN035=



000
FTUS44 KLIX 120534
TAFMSY
TAF
KMSY 120534Z 1206/1306 21009KT P6SM FEW015
     FM121600 24010G15KT P6SM SCT040=



000
FTUS44 KLIX 120534
TAFNEW
TAF
KNEW 120534Z 1206/1306 21012KT P6SM SKC
     FM121200 26012KT P6SM FEW035=



000
FTUS44 KLIX 120534
TAFBTR
TAF
KBTR 120534Z 1206/1306 23008KT P6SM SKC
     FM121600 25006KT P6SM FEW015=



000
FTUS44 KLIX 120534
TAFGPT
TAF
KGPT 120534Z 1206/1306 23006KT P6SM SKC
     FM121600 28010G15KT P6SM BKN040=



000
FTUS44 KLIX 120534
TAFMCB
TAF
KMCB 120534Z 1206/1306 23006KT P6SM SKC
     FM121500 28009KT P6SM FEW015
     FM121700 28010KT P6SM BKN035=



000
FTUS44 KLIX 120534
TAFNEW
TAF
KNEW 120534Z 1206/1306 21012KT P6SM SKC
     FM121200 26012KT P6SM FEW035=



000
FTUS44 KLIX 120534
TAFNEW
TAF
KNEW 120534Z 1206/1306 21012KT P6SM SKC
     FM121200 26012KT P6SM FEW035=



000
FTUS44 KLIX 120057 AAA
TAFNEW
TAF AMD
KNEW 120057Z 1201/1224 22012KT P6SM SKC
     FM120800 24007KT 5SM BR SCT020 BKN060
     FM121400 26010KT P6SM FEW035=



000
FTUS44 KLIX 120057 AAA
TAFNEW
TAF AMD
KNEW 120057Z 1201/1224 22012KT P6SM SKC
     FM120800 24007KT 5SM BR SCT020 BKN060
     FM121400 26010KT P6SM FEW035=



000
FTUS44 KLIX 120057 AAA
TAFNEW
TAF AMD
KNEW 120057Z 1201/1224 22012KT P6SM SKC
     FM120800 24007KT 5SM BR SCT020 BKN060
     FM121400 26010KT P6SM FEW035=



000
FTUS44 KLIX 112338
TAFBTR
TAF
KBTR 112338Z 1200/1224 24014G18KT P6SM SKC
     FM120300 21007KT P6SM SKC
     FM120900 VRB03KT 2SM BR BKN003
     FM121500 25006KT P6SM BKN010=



000
FTUS44 KLIX 112338
TAFMCB
TAF
KMCB 112338Z 1200/1224 23006KT P6SM SKC
     FM120800 VRB03KT 2SM BR FEW060
     FM121500 26006KT P6SM BKN015
     FM121700 28010KT P6SM BKN035=



000
FTUS44 KLIX 112338
TAFNEW
TAF
KNEW 112338Z 1200/1224 25015KT P6SM SKC
     FM120800 24007KT 5SM BR SCT020 BKN060
     FM121400 26010KT P6SM FEW035=



000
FTUS44 KLIX 112338
TAFNEW
TAF
KNEW 112338Z 1200/1224 25015KT P6SM SKC
     FM120800 24007KT 5SM BR SCT020 BKN060
     FM121400 26010KT P6SM FEW035=



000
FTUS44 KLIX 112338
TAFGPT
TAF
KGPT 112338Z 1200/1224 22005KT P6SM SKC
     FM120800 24005KT 6SM BR BKN008
     FM121600 28010G15KT P6SM BKN040=



000
FTUS44 KLIX 112338
TAFMSY
TAF
KMSY 112338Z 1200/1224 24013KT P6SM FEW010 FEW250
     FM120100 23009KT P6SM FEW250
     FM120600 22005KT 5SM BR SKC
     FM121500 24010G15KT P6SM SCT040=



000
FTUS44 KLIX 112338
TAFGPT
TAF
KGPT 112338Z 1200/1224 22005KT P6SM SKC
     FM120800 24005KT 6SM BR BKN008
     FM121600 28010G15KT P6SM BKN040=



000
FTUS44 KLIX 112338
TAFMSY
TAF
KMSY 112338Z 1200/1224 24013KT P6SM FEW010 FEW250
     FM120100 23009KT P6SM FEW250
     FM120600 22005KT 5SM BR SKC
     FM121500 24010G15KT P6SM SCT040=



000
FTUS44 KLIX 112338
TAFMCB
TAF
KMCB 112338Z 1200/1224 23006KT P6SM SKC
     FM120800 VRB03KT 2SM BR FEW060
     FM121500 26006KT P6SM BKN015
     FM121700 28010KT P6SM BKN035=



000
FTUS44 KLIX 112338
TAFBTR
TAF
KBTR 112338Z 1200/1224 24014G18KT P6SM SKC
     FM120300 21007KT P6SM SKC
     FM120900 VRB03KT 2SM BR BKN003
     FM121500 25006KT P6SM BKN010=



000
FTUS44 KLIX 112338
TAFNEW
TAF
KNEW 112338Z 1200/1224 25015KT P6SM SKC
     FM120800 24007KT 5SM BR SCT020 BKN060
     FM121400 26010KT P6SM FEW035=



000
FTUS44 KLIX 111740
TAFGPT
TAF
KGPT 111740Z 1118/1218 22010G17KT P6SM FEW025
     FM120100 22007KT P6SM SKC
     FM120800 24005KT 6SM BR BKN008
     FM121500 28009G15KT P6SM BKN015=



000
FTUS44 KLIX 111740
TAFNEW
TAF
KNEW 111740Z 1118/1218 24017KT P6SM SCT025
     FM120800 24007KT 4SM BR SCT020 BKN060
     FM121400 26008KT P6SM FEW035=



000
FTUS44 KLIX 111740
TAFBTR
TAF
KBTR 111740Z 1118/1218 25013G21KT P6SM FEW025
     FM112200 24011KT P6SM SKC
     FM120600 21005KT 3SM BR FEW100
     FM120900 VRB03KT 1 1/2SM BR BKN003
     FM121500 25004KT P6SM BKN010=



000
FTUS44 KLIX 111740
TAFMSY
TAF
KMSY 111740Z 1118/1218 24015G22KT P6SM SCT025
     FM120100 23009KT P6SM FEW250
     FM120600 22007KT 4SM BR SKC
     FM121400 24006KT P6SM SCT040=



000
FTUS44 KLIX 111740
TAFMCB
TAF
KMCB 111740Z 1118/1218 25013G21KT P6SM FEW025
     FM112200 25009KT P6SM SKC
     FM120600 VRB03KT 2SM BR FEW060
     FM121500 26004KT P6SM BKN010
     FM121700 27005KT P6SM BKN035=



000
FTUS44 KLIX 111740
TAFGPT
TAF
KGPT 111740Z 1118/1218 22010G17KT P6SM FEW025
     FM120100 22007KT P6SM SKC
     FM120800 24005KT 6SM BR BKN008
     FM121500 28009G15KT P6SM BKN015=



000
FTUS44 KLIX 111740
TAFNEW
TAF
KNEW 111740Z 1118/1218 24017KT P6SM SCT025
     FM120800 24007KT 4SM BR SCT020 BKN060
     FM121400 26008KT P6SM FEW035=



000
FTUS44 KLIX 111740
TAFMCB
TAF
KMCB 111740Z 1118/1218 25013G21KT P6SM FEW025
     FM112200 25009KT P6SM SKC
     FM120600 VRB03KT 2SM BR FEW060
     FM121500 26004KT P6SM BKN010
     FM121700 27005KT P6SM BKN035=



000
FTUS44 KLIX 111740
TAFMSY
TAF
KMSY 111740Z 1118/1218 24015G22KT P6SM SCT025
     FM120100 23009KT P6SM FEW250
     FM120600 22007KT 4SM BR SKC
     FM121400 24006KT P6SM SCT040=



000
FTUS44 KLIX 111740
TAFBTR
TAF
KBTR 111740Z 1118/1218 25013G21KT P6SM FEW025
     FM112200 24011KT P6SM SKC
     FM120600 21005KT 3SM BR FEW100
     FM120900 VRB03KT 1 1/2SM BR BKN003
     FM121500 25004KT P6SM BKN010=



000
FTUS44 KLIX 111128
TAFNEW
TAF
KNEW 111128Z 1112/1212 21009KT P6SM SKC
     FM111800 25011KT P6SM SKC
     FM120800 24007KT P6SM BKN035
     FM121100 25007KT P6SM SCT015=



000
FTUS44 KLIX 111128
TAFMSY
TAF
KMSY 111128Z 1112/1212 18006KT P6SM SKC
     FM111500 23009KT P6SM FEW250
     FM112000 24013KT P6SM FEW250
     FM120100 23006KT P6SM FEW250=



000
FTUS44 KLIX 111128
TAFMCB
TAF
KMCB 111128Z 1112/1212 20003KT P6SM SKC
     FM111500 25011G22KT P6SM FEW250
     FM112300 24007KT P6SM SKC
     FM120400 VRB03KT P6SM FEW250
      TEMPO 1208/1212 BKN008=



000
FTUS44 KLIX 111128
TAFGPT
TAF
KGPT 111128Z 1112/1212 00000KT P6SM SKC
     FM111400 24008KT P6SM FEW120
     FM120800 24005KT P6SM SCT010=



000
FTUS44 KLIX 111128
TAFNEW
TAF
KNEW 111128Z 1112/1212 21009KT P6SM SKC
     FM111800 25011KT P6SM SKC
     FM120800 24007KT P6SM BKN035
     FM121100 25007KT P6SM SCT015=



000
FTUS44 KLIX 111128
TAFBTR
TAF
KBTR 111128Z 1112/1212 22008KT P6SM SKC
     FM111500 24010G19KT P6SM FEW250
     FM112300 23009KT P6SM FEW250
     FM120400 21005KT P6SM FEW250=



000
FTUS44 KLIX 111128
TAFMCB
TAF
KMCB 111128Z 1112/1212 20003KT P6SM SKC
     FM111500 25011G22KT P6SM FEW250
     FM112300 24007KT P6SM SKC
     FM120400 VRB03KT P6SM FEW250
      TEMPO 1208/1212 BKN008=



000
FTUS44 KLIX 111128
TAFMSY
TAF
KMSY 111128Z 1112/1212 18006KT P6SM SKC
     FM111500 23009KT P6SM FEW250
     FM112000 24013KT P6SM FEW250
     FM120100 23006KT P6SM FEW250=



000
FTUS44 KLIX 111128
TAFGPT
TAF
KGPT 111128Z 1112/1212 00000KT P6SM SKC
     FM111400 24008KT P6SM FEW120
     FM120800 24005KT P6SM SCT010=



000
FTUS44 KLIX 111128
TAFNEW
TAF
KNEW 111128Z 1112/1212 21009KT P6SM SKC
     FM111800 25011KT P6SM SKC
     FM120800 24007KT P6SM BKN035
     FM121100 25007KT P6SM SCT015=



000
FTUS44 KLIX 111128
TAFBTR
TAF
KBTR 111128Z 1112/1212 22008KT P6SM SKC
     FM111500 24010G19KT P6SM FEW250
     FM112300 23009KT P6SM FEW250
     FM120400 21005KT P6SM FEW250=



000
FTUS44 KLIX 110531
TAFNEW
TAF
KNEW 110531Z 1106/1206 23012KT P6SM SKC
     FM111700 25015G20KT P6SM SKC
     FM120300 22013KT P6SM SKC=



000
FTUS44 KLIX 110531
TAFMCB
TAF
KMCB 110531Z 1106/1206 22008KT P6SM SKC
     FM111600 26012G18KT P6SM SKC
     FM120000 22005KT P6SM SKC=



000
FTUS44 KLIX 110531
TAFGPT
TAF
KGPT 110531Z 1106/1206 23008KT P6SM SKC
     FM111600 24012G18KT P6SM SKC
     FM120100 20005KT P6SM SKC=



000
FTUS44 KLIX 110531
TAFMSY
TAF
KMSY 110531Z 1106/1206 22010KT P6SM FEW010
     FM111600 23015G20KT P6SM SKC
     FM120100 22013KT P6SM SKC=



000
FTUS44 KLIX 110531
TAFBTR
TAF
KBTR 110531Z 1106/1206 21009KT P6SM SKC
     FM111600 24012G18KT P6SM SKC
     FM120000 21008KT P6SM SKC=



000
FTUS44 KLIX 110531
TAFMSY
TAF
KMSY 110531Z 1106/1206 22010KT P6SM FEW010
     FM111600 23015G20KT P6SM SKC
     FM120100 22013KT P6SM SKC=



000
FTUS44 KLIX 110531
TAFNEW
TAF
KNEW 110531Z 1106/1206 23012KT P6SM SKC
     FM111700 25015G20KT P6SM SKC
     FM120300 22013KT P6SM SKC=



000
FTUS44 KLIX 110531
TAFGPT
TAF
KGPT 110531Z 1106/1206 23008KT P6SM SKC
     FM111600 24012G18KT P6SM SKC
     FM120100 20005KT P6SM SKC=



000
FTUS44 KLIX 110531
TAFMCB
TAF
KMCB 110531Z 1106/1206 22008KT P6SM SKC
     FM111600 26012G18KT P6SM SKC
     FM120000 22005KT P6SM SKC=



000
FTUS44 KLIX 110531
TAFBTR
TAF
KBTR 110531Z 1106/1206 21009KT P6SM SKC
     FM111600 24012G18KT P6SM SKC
     FM120000 21008KT P6SM SKC=



000
FTUS44 KLIX 110531
TAFNEW
TAF
KNEW 110531Z 1106/1206 23012KT P6SM SKC
     FM111700 25015G20KT P6SM SKC
     FM120300 22013KT P6SM SKC=



000
FTUS44 KLIX 102332
TAFNEW
TAF
KNEW 102332Z 1100/1124 26005KT P6SM SKC
     FM111700 25012G18KT P6SM SKC=



000
FTUS44 KLIX 102332
TAFNEW
TAF
KNEW 102332Z 1100/1124 26005KT P6SM SKC
     FM111700 25012G18KT P6SM SKC=



000
FTUS44 KLIX 102332
TAFBTR
TAF
KBTR 102332Z 1100/1124 22005KT P6SM SKC
     FM111600 24010G17KT P6SM SKC=



000
FTUS44 KLIX 102332
TAFMSY
TAF
KMSY 102332Z 1100/1124 21006KT P6SM SKC
     FM111600 23012G18KT P6SM SKC=



000
FTUS44 KLIX 102332
TAFGPT
TAF
KGPT 102332Z 1100/1124 VRB05KT P6SM SKC
     FM111600 24010G15KT P6SM SKC=



000
FTUS44 KLIX 102332
TAFMCB
TAF
KMCB 102332Z 1100/1124 VRB04KT P6SM SKC
     FM111600 25009KT P6SM SKC=



000
FTUS44 KLIX 102332
TAFMCB
TAF
KMCB 102332Z 1100/1124 VRB04KT P6SM SKC
     FM111600 25009KT P6SM SKC=



000
FTUS44 KLIX 102332
TAFMSY
TAF
KMSY 102332Z 1100/1124 21006KT P6SM SKC
     FM111600 23012G18KT P6SM SKC=



000
FTUS44 KLIX 102332
TAFNEW
TAF
KNEW 102332Z 1100/1124 26005KT P6SM SKC
     FM111700 25012G18KT P6SM SKC=



000
FTUS44 KLIX 102332
TAFBTR
TAF
KBTR 102332Z 1100/1124 22005KT P6SM SKC
     FM111600 24010G17KT P6SM SKC=



000
FTUS44 KLIX 102332
TAFGPT
TAF
KGPT 102332Z 1100/1124 VRB05KT P6SM SKC
     FM111600 24010G15KT P6SM SKC=



000
FTUS44 KLIX 101721
TAFNEW
TAF
KNEW 101721Z 1018/1118 32007KT P6SM SKC
     FM102300 24007KT P6SM SKC
     FM111700 25012KT P6SM SKC=



000
FTUS44 KLIX 101721
TAFGPT
TAF
KGPT 101721Z 1018/1118 29008KT P6SM SKC
     FM110000 23005KT P6SM SKC
     FM111600 24010KT P6SM SKC=



000
FTUS44 KLIX 101721
TAFMCB
TAF
KMCB 101721Z 1018/1118 29008KT P6SM SKC
     FM102300 21005KT P6SM SKC=



000
FTUS44 KLIX 101721
TAFBTR
TAF
KBTR 101721Z 1018/1118 29006KT P6SM SKC
     FM102200 22005KT P6SM SKC=



000
FTUS44 KLIX 101721
TAFMSY
TAF
KMSY 101721Z 1018/1118 32006KT P6SM SKC
     FM102300 23007KT P6SM SKC
     FM111600 23012KT P6SM SKC=



000
FTUS44 KLIX 101421 AAA
TAFNEW
TAF AMD
KNEW 101421Z 1014/1112 02008KT P6SM SKC
     FM101600 32009KT P6SM SKC
     FM102100 29006KT P6SM SKC
     FM110500 23010KT P6SM SKC=



000
FTUS44 KLIX 101421 AAA
TAFNEW
TAF AMD
KNEW 101421Z 1014/1112 02008KT P6SM SKC
     FM101600 32009KT P6SM SKC
     FM102100 29006KT P6SM SKC
     FM110500 23010KT P6SM SKC=



000
FTUS44 KLIX 101421 AAA
TAFNEW
TAF AMD
KNEW 101421Z 1014/1112 02008KT P6SM SKC
     FM101600 32009KT P6SM SKC
     FM102100 29006KT P6SM SKC
     FM110500 23010KT P6SM SKC=



000
FTUS44 KLIX 101125
TAFNEW
TAF
KNEW 101125Z 1012/1112 35015KT P6SM SKC
     FM101700 32010KT P6SM SKC
     FM102100 29006KT P6SM SKC
     FM110500 23010KT P6SM SKC=



000
FTUS44 KLIX 101125
TAFBTR
TAF
KBTR 101125Z 1012/1112 32010KT P6SM SKC
     FM102000 27006KT P6SM SKC
     FM110200 21004KT P6SM SKC=



000
FTUS44 KLIX 101125
TAFMCB
TAF
KMCB 101125Z 1012/1112 00000KT P6SM SKC
     FM101900 29008KT P6SM SKC
     FM102300 23004KT P6SM SKC=



000
FTUS44 KLIX 101125
TAFMSY
TAF
KMSY 101125Z 1012/1112 35010KT P6SM SKC
     FM101900 32008KT P6SM SKC
     FM102300 25004KT P6SM SKC
     FM110500 23008KT P6SM SKC=



000
FTUS44 KLIX 101125
TAFGPT
TAF
KGPT 101125Z 1012/1112 35004KT P6SM SKC
     FM101800 31011KT P6SM SKC
     FM102000 28010KT P6SM SKC
     FM110000 24006KT P6SM SKC
     FM110600 23010KT P6SM SKC=



000
FTUS44 KLIX 101125
TAFNEW
TAF
KNEW 101125Z 1012/1112 35015KT P6SM SKC
     FM101700 32010KT P6SM SKC
     FM102100 29006KT P6SM SKC
     FM110500 23010KT P6SM SKC=



000
FTUS44 KLIX 101125
TAFNEW
TAF
KNEW 101125Z 1012/1112 35015KT P6SM SKC
     FM101700 32010KT P6SM SKC
     FM102100 29006KT P6SM SKC
     FM110500 23010KT P6SM SKC=



000
FTUS44 KLIX 101125
TAFMCB
TAF
KMCB 101125Z 1012/1112 00000KT P6SM SKC
     FM101900 29008KT P6SM SKC
     FM102300 23004KT P6SM SKC=



000
FTUS44 KLIX 101125
TAFBTR
TAF
KBTR 101125Z 1012/1112 32010KT P6SM SKC
     FM102000 27006KT P6SM SKC
     FM110200 21004KT P6SM SKC=



000
FTUS44 KLIX 101125
TAFGPT
TAF
KGPT 101125Z 1012/1112 35004KT P6SM SKC
     FM101800 31011KT P6SM SKC
     FM102000 28010KT P6SM SKC
     FM110000 24006KT P6SM SKC
     FM110600 23010KT P6SM SKC=



000
FTUS44 KLIX 101125
TAFMSY
TAF
KMSY 101125Z 1012/1112 35010KT P6SM SKC
     FM101900 32008KT P6SM SKC
     FM102300 25004KT P6SM SKC
     FM110500 23008KT P6SM SKC=



000
FTUS44 KLIX 100521
TAFMSY
TAF
KMSY 100521Z 1006/1106 31007KT P6SM SKC
     FM102300 23005KT P6SM FEW250=



000
FTUS44 KLIX 100521
TAFMCB
TAF
KMCB 100521Z 1006/1106 VRB04KT P6SM SKC
     FM101600 30006KT P6SM SKC
     FM110000 VRB03KT P6SM FEW250=



000
FTUS44 KLIX 100521
TAFGPT
TAF
KGPT 100521Z 1006/1106 VRB04KT P6SM SKC
     FM101600 29010KT P6SM SKC
     FM110000 24004KT P6SM SKC=



000
FTUS44 KLIX 100521
TAFNEW
TAF
KNEW 100521Z 1006/1106 28012KT P6SM SKC
     FM100800 34013KT P6SM SKC
     FM101100 36009KT P6SM SKC
     FM101800 30007KT P6SM SKC
     FM110000 23008KT P6SM SKC=



000
FTUS44 KLIX 100521
TAFBTR
TAF
KBTR 100521Z 1006/1106 VRB04KT P6SM SKC=



000
FTUS44 KLIX 100432 AAB
TAFNEW
TAF AMD
KNEW 100432Z 1005/1024 29010KT P6SM SKC
     FM101400 32009KT P6SM SKC
     FM102100 29008KT P6SM SKC=



000
FTUS44 KLIX 100430 AAB
TAFMSY
TAF AMD
KMSY 100430Z 1005/1024 30008KT P6SM FEW250
     FM100900 32007KT P6SM SKC=



000
FTUS44 KLIX 100159 AAA
TAFNEW
TAF AMD
KNEW 100159Z 1002/1024 30012KT P6SM SKC
     FM101000 33014KT P6SM SKC
     FM101400 32009KT P6SM SKC
     FM102100 29008KT P6SM SKC=



000
FTUS44 KLIX 100001 AAA
TAFGPT
TAF AMD
KGPT 100001Z 1000/1024 31007KT P6SM FEW250
     FM101400 33011KT P6SM SKC
     FM101900 25009KT P6SM SKC=



000
FTUS44 KLIX 100001 AAA
TAFGPT
TAF AMD
KGPT 100001Z 1000/1024 31007KT P6SM FEW250
     FM101400 33011KT P6SM SKC
     FM101900 25009KT P6SM SKC=



000
FTUS44 KLIX 100000 AAA
TAFMSY
TAF AMD
KMSY 100000Z 1000/1024 31012KT P6SM FEW250
     FM100900 32007KT P6SM SKC=



000
FTUS44 KLIX 100000 AAA
TAFMSY
TAF AMD
KMSY 100000Z 1000/1024 31012KT P6SM FEW250
     FM100900 32007KT P6SM SKC=



000
FTUS44 KLIX 092323
TAFMCB
TAF
KMCB 092323Z 1000/1024 30012KT P6SM FEW250
     FM100300 VRB04KT P6SM SKC
     FM101500 32006KT P6SM SKC=



000
FTUS44 KLIX 092323
TAFNEW
TAF
KNEW 092323Z 1000/1024 30018G25KT P6SM SKC
     FM101000 33014KT P6SM SKC
     FM101400 32009KT P6SM SKC
     FM102100 29008KT P6SM SKC=



000
FTUS44 KLIX 092323
TAFNEW
TAF
KNEW 092323Z 1000/1024 30018G25KT P6SM SKC
     FM101000 33014KT P6SM SKC
     FM101400 32009KT P6SM SKC
     FM102100 29008KT P6SM SKC=



000
FTUS44 KLIX 092323
TAFGPT
TAF
KGPT 092323Z 1000/1024 30016G23KT P6SM FEW250
     FM100200 31006KT P6SM SKC
     FM101400 33011KT P6SM SKC
     FM101900 25009KT P6SM SKC=



000
FTUS44 KLIX 092323
TAFMSY
TAF
KMSY 092323Z 1000/1024 30015G22KT P6SM FEW250
     FM100300 33011KT P6SM SKC
     FM100900 32007KT P6SM SKC=



000
FTUS44 KLIX 092323
TAFNEW
TAF
KNEW 092323Z 1000/1024 30018G25KT P6SM SKC
     FM101000 33014KT P6SM SKC
     FM101400 32009KT P6SM SKC
     FM102100 29008KT P6SM SKC=



000
FTUS44 KLIX 092323
TAFMCB
TAF
KMCB 092323Z 1000/1024 30012KT P6SM FEW250
     FM100300 VRB04KT P6SM SKC
     FM101500 32006KT P6SM SKC=



000
FTUS44 KLIX 092323
TAFBTR
TAF
KBTR 092323Z 1000/1024 30016KT P6SM SKC
     FM100200 VRB04KT P6SM SKC=



000
FTUS44 KLIX 092323
TAFGPT
TAF
KGPT 092323Z 1000/1024 30016G23KT P6SM FEW250
     FM100200 31006KT P6SM SKC
     FM101400 33011KT P6SM SKC
     FM101900 25009KT P6SM SKC=



000
FTUS44 KLIX 092323
TAFBTR
TAF
KBTR 092323Z 1000/1024 30016KT P6SM SKC
     FM100200 VRB04KT P6SM SKC=



000
FTUS44 KLIX 092323
TAFMSY
TAF
KMSY 092323Z 1000/1024 30015G22KT P6SM FEW250
     FM100300 33011KT P6SM SKC
     FM100900 32007KT P6SM SKC=



    US Dept of Commerce
    National Oceanic and Atmospheric Administration
    National Weather Service
    1325 East West Highway
    Silver Spring, MD 20910
    Page Author: NWS Internet Services Team
Disclaimer
Information Quality
Credits
Glossary
Privacy Policy
Freedom of Information Act (FOIA)
About Us
Career Opportunities